Time;durP1;ratioP1;P1;durP2;ratioP2;P2;SDS_P1;SDS_P2;PMS_P1;PMS_P2;Temp;Humidity;BMP_temperature;BMP_pressure;BME280_temperature;BME280_humidity;BME280_pressure;Samples;Min_cycle;Max_cycle;Signal;HPM_P1;HPM_P2
2022/03/12 00:00:30;;;;;;;7.73;6.93;;;10.30;41.50;;;;;;5054466;28;20215;-69
2022/03/12 00:02:56;;;;;;;8.33;6.83;;;10.20;41.40;;;;;;5054341;28;20421;-69
2022/03/12 00:05:23;;;;;;;9.00;7.30;;;10.30;41.60;;;;;;5056456;28;20757;-71
2022/03/12 00:07:51;;;;;;;7.93;7.03;;;10.30;41.70;;;;;;5038849;28;20460;-69
2022/03/12 00:10:18;;;;;;;10.10;6.80;;;10.20;41.50;;;;;;5037661;28;20425;-68
2022/03/12 00:12:43;;;;;;;8.00;7.17;;;10.20;41.50;;;;;;5054333;28;20951;-68
2022/03/12 00:15:12;;;;;;;7.80;6.60;;;10.20;41.70;;;;;;5054260;28;20413;-69
2022/03/12 00:17:43;;;;;;;8.60;7.70;;;10.30;41.70;;;;;;5053979;28;20264;-69
2022/03/12 00:20:12;;;;;;;8.40;7.30;;;10.20;41.80;;;;;;5036461;28;20421;-69
2022/03/12 00:22:43;;;;;;;8.40;6.90;;;10.20;42.00;;;;;;5056311;28;20411;-69
2022/03/12 00:25:10;;;;;;;8.60;7.00;;;10.20;41.80;;;;;;5059233;28;20452;-69
2022/03/12 00:27:41;;;;;;;9.00;7.53;;;10.20;42.00;;;;;;5056254;28;20976;-69
2022/03/12 00:30:09;;;;;;;7.93;7.00;;;10.10;42.10;;;;;;5038005;28;20849;-68
2022/03/12 00:32:37;;;;;;;8.43;6.90;;;10.10;42.00;;;;;;5056156;28;20409;-69
2022/03/12 00:35:04;;;;;;;10.40;7.87;;;10.10;42.00;;;;;;5055569;28;20489;-69
2022/03/12 00:37:29;;;;;;;7.57;6.37;;;10.10;42.10;;;;;;5055494;28;20411;-68
2022/03/12 00:39:56;;;;;;;10.30;6.90;;;10.10;42.10;;;;;;5055754;28;20416;-69
2022/03/12 00:42:21;;;;;;;8.43;6.97;;;10.00;42.20;;;;;;5056239;28;20178;-68
2022/03/12 00:44:47;;;;;;;7.60;6.90;;;10.10;42.50;;;;;;5057900;28;20896;-68
2022/03/12 00:47:12;;;;;;;7.43;6.73;;;10.10;42.50;;;;;;5038363;28;20712;-69
2022/03/12 00:49:38;;;;;;;11.17;7.43;;;10.10;42.30;;;;;;5055516;28;20217;-68
2022/03/12 00:52:04;;;;;;;7.83;6.77;;;10.10;42.30;;;;;;5054945;28;20202;-68
2022/03/12 00:54:29;;;;;;;8.20;6.93;;;10.10;42.30;;;;;;5055490;28;20236;-69
2022/03/12 00:56:55;;;;;;;9.30;7.13;;;10.10;42.30;;;;;;5055332;28;20404;-69
2022/03/12 00:59:20;;;;;;;11.37;8.03;;;10.10;42.30;;;;;;5054929;28;20209;-69
2022/03/12 01:01:46;;;;;;;9.50;7.10;;;10.10;42.30;;;;;;5054744;28;20192;-69
2022/03/12 01:04:11;;;;;;;9.80;7.20;;;10.10;42.50;;;;;;5055016;28;20565;-70
2022/03/12 01:06:37;;;;;;;7.40;6.70;;;10.00;42.30;;;;;;5054988;28;20261;-69
2022/03/12 01:09:03;;;;;;;9.97;7.80;;;10.00;42.50;;;;;;5055123;28;20198;-69
2022/03/12 01:11:29;;;;;;;9.03;7.57;;;10.00;42.50;;;;;;5055164;28;20170;-69
2022/03/12 01:13:54;;;;;;;9.40;7.37;;;10.00;42.60;;;;;;5054948;28;20439;-69
2022/03/12 01:16:21;;;;;;;8.13;6.90;;;10.00;42.60;;;;;;5055295;28;20166;-69
2022/03/12 01:18:46;;;;;;;10.70;7.40;;;10.00;42.70;;;;;;5054881;28;20233;-69
2022/03/12 01:21:17;;;;;;;8.13;7.33;;;10.00;42.70;;;;;;5054461;28;20460;-69
2022/03/12 01:23:44;;;;;;;8.23;7.40;;;10.00;42.60;;;;;;5053787;28;20281;-69
2022/03/12 01:26:10;;;;;;;8.17;6.80;;;10.00;42.80;;;;;;5054023;28;20421;-71
2022/03/12 01:28:37;;;;;;;8.40;7.03;;;9.90;43.70;;;;;;5053106;28;20452;-68
2022/03/12 01:31:03;;;;;;;7.97;6.67;;;10.00;42.90;;;;;;5053134;28;20408;-69
2022/03/12 01:33:29;;;;;;;8.37;7.10;;;9.90;43.70;;;;;;5052633;28;20475;-69
2022/03/12 01:35:55;;;;;;;8.43;7.43;;;9.90;43.90;;;;;;5035166;28;20436;-69
2022/03/12 01:38:33;;;;;;;8.27;7.37;;;9.90;43.90;;;;;;5052606;28;20409;-68
2022/03/12 01:41:03;;;;;;;8.77;6.77;;;9.90;44.40;;;;;;5052742;28;20405;-69
2022/03/12 01:43:35;;;;;;;10.83;7.30;;;9.90;43.80;;;;;;5052503;28;20827;-69
2022/03/12 01:46:01;;;;;;;8.93;7.40;;;9.90;44.00;;;;;;5053016;28;20462;-69
2022/03/12 01:48:30;;;;;;;7.93;7.13;;;9.80;44.10;;;;;;5052649;28;20456;-69
2022/03/12 01:50:57;;;;;;;9.93;7.30;;;9.80;44.20;;;;;;5052574;28;20667;-69
2022/03/12 01:53:26;;;;;;;7.90;7.10;;;9.80;44.40;;;;;;5052093;28;20420;-68
2022/03/12 01:55:53;;;;;;;8.10;7.17;;;9.80;44.30;;;;;;5052602;28;20417;-68
2022/03/12 01:58:19;;;;;;;7.83;6.77;;;9.90;44.40;;;;;;5052497;28;20428;-68
2022/03/12 02:00:48;;;;;;;9.07;7.27;;;9.90;44.40;;;;;;5052695;28;20889;-68
2022/03/12 02:03:16;;;;;;;7.90;7.10;;;9.80;44.20;;;;;;5051946;28;20437;-68
2022/03/12 02:05:43;;;;;;;17.87;7.73;;;9.80;44.50;;;;;;5052409;28;20819;-68
2022/03/12 02:08:14;;;;;;;10.57;8.00;;;9.80;44.60;;;;;;5052378;28;20989;-68
2022/03/12 02:10:42;;;;;;;8.07;7.10;;;9.80;44.70;;;;;;5051696;28;20408;-69
2022/03/12 02:13:07;;;;;;;10.27;7.37;;;9.80;45.00;;;;;;5051757;28;20516;-68
2022/03/12 02:15:33;;;;;;;9.80;8.60;;;9.80;45.00;;;;;;5052349;28;20452;-69
2022/03/12 02:17:58;;;;;;;8.87;7.83;;;9.80;45.00;;;;;;5052398;28;20174;-70
2022/03/12 02:20:24;;;;;;;10.80;8.13;;;9.80;45.20;;;;;;5052097;28;20868;-69
2022/03/12 02:22:53;;;;;;;8.80;7.60;;;9.80;45.10;;;;;;5034237;28;20188;-70
2022/03/12 02:25:25;;;;;;;8.50;7.10;;;9.80;45.00;;;;;;5052133;28;20635;-69
2022/03/12 02:27:51;;;;;;;9.63;6.77;;;9.80;45.10;;;;;;5052545;28;20546;-69
2022/03/12 02:30:19;;;;;;;9.63;7.03;;;9.70;45.10;;;;;;5052208;28;20504;-68
2022/03/12 02:32:45;;;;;;;8.87;7.23;;;9.80;45.10;;;;;;5051831;28;20166;-68
2022/03/12 02:35:11;;;;;;;9.50;7.73;;;9.70;45.20;;;;;;5034377;28;20412;-68
2022/03/12 02:37:42;;;;;;;13.07;8.27;;;9.70;45.10;;;;;;5052646;28;20416;-69
2022/03/12 02:40:09;;;;;;;11.03;7.30;;;9.70;45.50;;;;;;5052210;28;20465;-68
2022/03/12 02:42:38;;;;;;;11.60;7.10;;;9.70;45.50;;;;;;5052191;28;20443;-69
2022/03/12 02:45:08;;;;;;;9.50;7.60;;;9.70;45.50;;;;;;5066294;22;21052;-68
2022/03/12 02:47:36;;;;;;;8.73;7.40;;;9.70;45.60;;;;;;5032485;28;21009;-68
2022/03/12 02:50:07;;;;;;;7.90;7.17;;;9.70;45.50;;;;;;5033049;28;20413;-69
2022/03/12 02:52:41;;;;;;;9.70;8.07;;;9.70;45.50;;;;;;5015077;28;20848;-70
2022/03/12 02:55:12;;;;;;;9.97;7.80;;;9.70;45.60;;;;;;5033031;28;20849;-70
2022/03/12 02:57:37;;;;;;;8.60;7.23;;;9.70;46.20;;;;;;5016345;28;20424;-71
2022/03/12 03:00:06;;;;;;;10.60;7.50;;;9.70;45.70;;;;;;5034281;28;20784;-70
2022/03/12 03:02:39;;;;;;;7.83;6.73;;;9.70;45.80;;;;;;5032431;28;20182;-67
2022/03/12 03:05:30;;;;;;;7.83;6.87;;;9.70;45.80;;;;;;5035129;28;20508;-68
2022/03/12 03:07:57;;;;;;;11.17;7.80;;;9.70;45.80;;;;;;5034771;28;20449;-68
2022/03/12 03:10:37;;;;;;;7.80;7.00;;;9.70;45.80;;;;;;5034533;28;20478;-67
2022/03/12 03:13:17;;;;;;;13.70;8.17;;;9.60;45.80;;;;;;5016834;28;20416;-67
2022/03/12 03:15:48;;;;;;;8.47;7.20;;;9.60;46.10;;;;;;5032953;28;20436;-69
2022/03/12 03:18:15;;;;;;;9.37;7.50;;;9.60;46.20;;;;;;5033061;28;20513;-68
2022/03/12 03:20:45;;;;;;;9.03;7.67;;;9.60;46.20;;;;;;5032711;28;20409;-68
2022/03/12 03:23:11;;;;;;;7.40;6.70;;;9.60;46.30;;;;;;5035558;28;20424;-68
2022/03/12 03:25:37;;;;;;;8.47;6.90;;;9.60;46.40;;;;;;5039027;28;20560;-69
2022/03/12 03:28:05;;;;;;;9.53;7.77;;;9.60;46.60;;;;;;5039602;28;20763;-69
2022/03/12 03:30:34;;;;;;;8.20;7.40;;;9.50;46.60;;;;;;5020113;28;20433;-69
2022/03/12 03:33:00;;;;;;;8.10;7.27;;;9.50;46.90;;;;;;5037279;28;20492;-68
2022/03/12 03:35:26;;;;;;;8.80;6.97;;;9.50;46.90;;;;;;5019118;28;20514;-68
2022/03/12 03:37:51;;;;;;;10.40;8.03;;;9.50;47.00;;;;;;5019043;28;20768;-68
2022/03/12 03:40:17;;;;;;;12.63;7.40;;;9.50;47.10;;;;;;5022146;28;20205;-69
2022/03/12 03:42:42;;;;;;;9.73;7.27;;;9.50;47.10;;;;;;5044466;28;20175;-67
2022/03/12 03:45:08;;;;;;;10.87;7.90;;;9.50;47.20;;;;;;5026799;28;20217;-69
2022/03/12 03:47:33;;;;;;;10.20;8.00;;;9.40;47.20;;;;;;5044350;28;20179;-68
2022/03/12 03:49:59;;;;;;;9.87;7.60;;;9.40;47.20;;;;;;5044246;28;20319;-68
2022/03/12 03:52:24;;;;;;;10.73;8.07;;;9.40;47.40;;;;;;5043906;28;20731;-68
2022/03/12 03:54:50;;;;;;;8.03;7.13;;;9.40;47.50;;;;;;5043739;28;20640;-68
2022/03/12 03:57:17;;;;;;;9.80;8.03;;;9.40;47.70;;;;;;5040229;28;20178;-70
2022/03/12 03:59:43;;;;;;;8.77;7.37;;;9.40;47.70;;;;;;5048765;28;20406;-70
2022/03/12 04:02:08;;;;;;;9.43;7.90;;;9.40;47.70;;;;;;5051761;28;20805;-70
2022/03/12 04:04:37;;;;;;;8.90;6.93;;;9.40;47.80;;;;;;5051813;28;20202;-70
2022/03/12 04:07:05;;;;;;;10.80;7.37;;;9.40;48.00;;;;;;5053106;28;20187;-66
2022/03/12 04:09:30;;;;;;;9.50;7.70;;;9.40;47.90;;;;;;5056099;28;20480;-68
2022/03/12 04:11:56;;;;;;;12.30;7.77;;;9.40;48.10;;;;;;5040748;28;20513;-68
2022/03/12 04:14:22;;;;;;;9.17;7.90;;;9.40;48.40;;;;;;5035945;28;20426;-68
2022/03/12 04:16:47;;;;;;;9.77;7.60;;;9.40;48.80;;;;;;5035576;28;20214;-68
2022/03/12 04:19:13;;;;;;;9.40;7.40;;;9.40;49.00;;;;;;5035316;28;20182;-69
2022/03/12 04:21:39;;;;;;;9.40;8.10;;;9.40;48.90;;;;;;5033999;28;20178;-69
2022/03/12 04:24:05;;;;;;;9.90;7.70;;;9.40;48.90;;;;;;5034697;28;20414;-69
2022/03/12 04:26:35;;;;;;;8.63;7.73;;;9.50;49.10;;;;;;5034755;28;20198;-69
2022/03/12 04:29:08;;;;;;;7.90;7.00;;;9.40;49.00;;;;;;5035194;28;20468;-69
2022/03/12 04:31:34;;;;;;;9.13;8.33;;;9.40;49.20;;;;;;5034725;28;20410;-69
2022/03/12 04:34:00;;;;;;;11.93;7.83;;;9.40;49.20;;;;;;5033835;28;20834;-69
2022/03/12 04:36:26;;;;;;;10.90;8.90;;;9.40;49.30;;;;;;5016998;28;20442;-69
2022/03/12 04:38:51;;;;;;;7.90;7.20;;;9.40;49.40;;;;;;5034820;28;20604;-69
2022/03/12 04:41:19;;;;;;;9.37;8.10;;;9.40;49.50;;;;;;5034561;28;20417;-69
2022/03/12 04:43:47;;;;;;;9.27;7.67;;;9.40;49.60;;;;;;5034996;28;20171;-71
2022/03/12 04:46:13;;;;;;;10.27;9.10;;;9.40;49.70;;;;;;5017616;28;20874;-70
2022/03/12 04:48:38;;;;;;;8.90;7.50;;;9.40;49.80;;;;;;5034981;28;20453;-70
2022/03/12 04:51:04;;;;;;;11.23;7.93;;;9.40;49.90;;;;;;5035454;28;20229;-69
2022/03/12 04:53:30;;;;;;;10.00;8.40;;;9.40;50.00;;;;;;5034442;28;20178;-69
2022/03/12 04:55:56;;;;;;;11.20;7.50;;;9.40;50.10;;;;;;5016430;28;20201;-69
2022/03/12 04:58:21;;;;;;;9.03;7.73;;;9.40;50.20;;;;;;5034746;28;20441;-69
2022/03/12 05:00:47;;;;;;;11.00;7.87;;;9.40;50.40;;;;;;5035362;28;20185;-69
2022/03/12 05:03:15;;;;;;;12.33;8.43;;;9.40;50.50;;;;;;5047922;28;20417;-68
2022/03/12 05:05:43;;;;;;;9.50;8.23;;;9.40;50.60;;;;;;5056491;28;20183;-70
2022/03/12 05:08:13;;;;;;;10.53;8.13;;;9.40;51.20;;;;;;5057487;28;20467;-69
2022/03/12 05:10:39;;;;;;;11.33;8.03;;;9.40;51.00;;;;;;5058085;28;20488;-66
2022/03/12 05:13:05;;;;;;;12.20;7.70;;;9.40;51.70;;;;;;5058631;28;20413;-69
2022/03/12 05:15:38;;;;;;;12.00;8.03;;;9.40;51.50;;;;;;5034787;28;20490;-69
2022/03/12 05:18:12;;;;;;;9.03;7.87;;;9.40;51.60;;;;;;5034314;28;20628;-69
2022/03/12 05:20:43;;;;;;;11.80;9.20;;;9.40;51.60;;;;;;5034425;28;20466;-69
2022/03/12 05:23:09;;;;;;;11.17;8.70;;;9.40;52.10;;;;;;5033873;28;20436;-68
2022/03/12 05:25:35;;;;;;;12.63;8.43;;;9.40;52.20;;;;;;5033806;28;20986;-69
2022/03/12 05:28:01;;;;;;;12.93;8.43;;;9.40;52.80;;;;;;5034073;28;20480;-68
2022/03/12 05:30:30;;;;;;;8.70;7.80;;;9.40;52.50;;;;;;5033570;28;20505;-69
2022/03/12 05:32:56;;;;;;;11.80;8.40;;;9.40;52.80;;;;;;5033677;28;20186;-69
2022/03/12 05:35:22;;;;;;;12.00;8.67;;;9.40;52.90;;;;;;5046146;28;20433;-68
2022/03/12 05:37:50;;;;;;;9.80;8.33;;;9.30;53.10;;;;;;5052645;28;20463;-68
2022/03/12 05:40:20;;;;;;;9.40;8.00;;;9.30;53.40;;;;;;5056450;28;20167;-67
2022/03/12 05:42:47;;;;;;;9.40;8.07;;;9.30;53.60;;;;;;5057909;28;20432;-68
2022/03/12 05:45:14;;;;;;;10.90;8.20;;;9.30;54.00;;;;;;5043773;28;20491;-68
2022/03/12 05:47:41;;;;;;;9.10;8.10;;;9.20;54.20;;;;;;5034058;28;20409;-69
2022/03/12 05:50:12;;;;;;;8.90;7.20;;;9.20;54.70;;;;;;5033005;28;20952;-68
2022/03/12 05:52:40;;;;;;;9.57;7.57;;;9.20;54.90;;;;;;5032950;28;20418;-67
2022/03/12 05:55:08;;;;;;;8.80;7.90;;;9.10;55.10;;;;;;5017099;28;20433;-69
2022/03/12 05:57:34;;;;;;;11.33;8.10;;;9.10;55.60;;;;;;5032969;28;20409;-70
2022/03/12 06:00:03;;;;;;;10.57;8.83;;;9.10;55.70;;;;;;5033428;28;20554;-70
2022/03/12 06:02:30;;;;;;;8.70;7.60;;;9.10;55.90;;;;;;5032589;28;20472;-69
2022/03/12 06:04:58;;;;;;;9.50;7.90;;;9.00;56.30;;;;;;5032372;28;20439;-70
2022/03/12 06:07:24;;;;;;;9.70;8.20;;;9.00;56.50;;;;;;5032439;28;20410;-70
2022/03/12 06:09:50;;;;;;;8.60;7.70;;;9.00;57.00;;;;;;5014464;28;20460;-70
2022/03/12 06:12:17;;;;;;;8.70;7.80;;;9.00;57.40;;;;;;5023461;28;21001;-69
2022/03/12 06:14:43;;;;;;;10.27;8.17;;;9.00;57.60;;;;;;5038138;28;20224;-69
2022/03/12 06:17:08;;;;;;;8.90;7.63;;;8.90;58.00;;;;;;5041192;28;20464;-69
2022/03/12 06:19:34;;;;;;;8.20;7.37;;;8.90;58.60;;;;;;5039237;28;20244;-67
2022/03/12 06:21:59;;;;;;;10.97;7.73;;;8.90;59.10;;;;;;5039731;28;20264;-69
2022/03/12 06:24:26;;;;;;;10.60;8.63;;;8.90;59.80;;;;;;5044068;28;20230;-70
2022/03/12 06:26:51;;;;;;;10.60;7.90;;;8.80;60.20;;;;;;5044247;28;20209;-69
2022/03/12 06:29:17;;;;;;;12.57;8.17;;;8.90;60.40;;;;;;5033264;28;20481;-71
2022/03/12 06:31:43;;;;;;;13.93;9.00;;;8.90;60.60;;;;;;5014548;28;20194;-71
2022/03/12 06:34:11;;;;;;;12.00;8.40;;;8.90;61.20;;;;;;5033294;28;20480;-71
2022/03/12 06:36:38;;;;;;;11.07;7.80;;;8.90;62.00;;;;;;5034456;28;20297;-68
2022/03/12 06:39:07;;;;;;;8.33;7.27;;;8.90;62.80;;;;;;5032828;28;20461;-70
2022/03/12 06:41:35;;;;;;;9.37;7.87;;;9.00;63.40;;;;;;5033437;28;21006;-67
2022/03/12 06:44:02;;;;;;;8.70;7.90;;;9.00;63.90;;;;;;5017182;28;20460;-69
2022/03/12 06:46:29;;;;;;;11.93;7.80;;;9.00;64.40;;;;;;5035422;28;20488;-69
2022/03/12 06:48:54;;;;;;;8.33;7.43;;;9.00;64.50;;;;;;5029213;28;20488;-70
2022/03/12 06:51:20;;;;;;;10.20;7.50;;;9.10;65.10;;;;;;5051233;28;20459;-69
2022/03/12 06:53:46;;;;;;;10.17;8.10;;;9.10;65.60;;;;;;5014988;28;20309;-69
2022/03/12 06:56:12;;;;;;;10.67;7.87;;;9.10;66.30;;;;;;5049989;28;20201;-68
2022/03/12 06:58:38;;;;;;;8.00;7.20;;;9.10;66.80;;;;;;5063128;28;20214;-69
2022/03/12 07:01:04;;;;;;;8.53;7.20;;;9.20;67.30;;;;;;5055591;28;20192;-69
2022/03/12 07:03:29;;;;;;;9.17;7.90;;;9.20;67.50;;;;;;5055029;28;20456;-70
2022/03/12 07:05:55;;;;;;;11.17;7.33;;;9.20;67.60;;;;;;5055682;28;20194;-70
2022/03/12 07:08:22;;;;;;;11.73;7.80;;;9.30;67.90;;;;;;5056971;28;20361;-69
2022/03/12 07:10:49;;;;;;;8.80;7.57;;;9.30;68.60;;;;;;5054504;28;20468;-70
2022/03/12 07:13:14;;;;;;;10.30;7.77;;;9.30;69.30;;;;;;5036411;28;20446;-70
2022/03/12 07:15:40;;;;;;;9.10;7.47;;;9.40;69.60;;;;;;5054634;28;20843;-69
2022/03/12 07:18:05;;;;;;;10.33;7.90;;;9.40;69.80;;;;;;5055313;28;20447;-68
2022/03/12 07:20:31;;;;;;;9.00;7.23;;;9.40;70.20;;;;;;5037374;28;20220;-69
2022/03/12 07:22:57;;;;;;;9.60;8.00;;;9.50;70.50;;;;;;5054770;28;20208;-70
2022/03/12 07:25:25;;;;;;;9.90;8.10;;;9.60;70.70;;;;;;5055438;28;20830;-70
2022/03/12 07:27:52;;;;;;;13.67;7.67;;;9.60;71.70;;;;;;5055800;28;20293;-70
2022/03/12 07:30:18;;;;;;;9.30;7.77;;;9.60;72.60;;;;;;5056851;28;20516;-71
2022/03/12 07:32:44;;;;;;;8.93;7.73;;;9.70;73.40;;;;;;5056254;28;20464;-68
2022/03/12 07:35:12;;;;;;;12.80;8.20;;;9.60;73.50;;;;;;5056624;28;20297;-71
2022/03/12 07:37:37;;;;;;;8.83;7.93;;;9.70;73.90;;;;;;5049356;28;20815;-68
2022/03/12 07:40:04;;;;;;;9.90;8.57;;;9.70;74.50;;;;;;5039046;28;20456;-71
2022/03/12 07:42:30;;;;;;;8.50;6.70;;;9.80;74.70;;;;;;5056137;28;20208;-72
2022/03/12 07:44:56;;;;;;;10.33;8.17;;;9.80;74.80;;;;;;5052957;28;20993;-68
2022/03/12 07:47:21;;;;;;;11.07;8.17;;;9.90;75.90;;;;;;5037243;28;20195;-68
2022/03/12 07:49:47;;;;;;;10.20;7.27;;;9.90;75.90;;;;;;5037866;28;20210;-70
2022/03/12 07:52:13;;;;;;;7.63;6.83;;;9.90;76.10;;;;;;5040083;28;20234;-70
2022/03/12 07:54:39;;;;;;;8.00;7.20;;;10.00;75.10;;;;;;5055910;28;20197;-71
2022/03/12 07:57:05;;;;;;;8.80;7.90;;;10.10;75.30;;;;;;5043585;28;20421;-70
2022/03/12 07:59:31;;;;;;;10.27;8.57;;;10.10;75.80;;;;;;5060093;28;20178;-70
2022/03/12 08:01:58;;;;;;;10.57;7.10;;;10.20;75.80;;;;;;5059291;28;20658;-68
2022/03/12 08:04:25;;;;;;;8.87;7.30;;;10.20;75.90;;;;;;5059534;28;20670;-69
2022/03/12 08:06:51;;;;;;;8.40;7.10;;;10.30;76.20;;;;;;5042000;28;20439;-69
2022/03/12 08:09:16;;;;;;;7.93;6.83;;;10.30;76.10;;;;;;5058734;28;20452;-69
2022/03/12 08:11:42;;;;;;;8.43;7.50;;;10.40;76.50;;;;;;5044148;28;20182;-71
2022/03/12 08:14:16;;;;;;;9.80;7.20;;;10.50;76.90;;;;;;5021769;28;20213;-69
2022/03/12 08:16:43;;;;;;;8.97;7.53;;;10.60;77.20;;;;;;5038776;28;20170;-70
2022/03/12 08:19:09;;;;;;;8.37;7.57;;;10.60;77.50;;;;;;5020670;28;20421;-69
2022/03/12 08:21:36;;;;;;;8.80;7.43;;;10.70;77.70;;;;;;5037790;28;20414;-70
2022/03/12 08:24:03;;;;;;;9.90;7.83;;;10.80;78.00;;;;;;5037317;28;20237;-69
2022/03/12 08:26:30;;;;;;;9.87;7.90;;;10.90;78.10;;;;;;5020497;28;20456;-70
2022/03/12 08:28:56;;;;;;;10.10;7.60;;;10.80;78.20;;;;;;5039385;28;20453;-71
2022/03/12 08:31:22;;;;;;;8.60;7.70;;;10.90;78.50;;;;;;5038246;28;20456;-72
2022/03/12 08:33:48;;;;;;;9.63;8.07;;;11.00;78.60;;;;;;5038063;28;20648;-71
2022/03/12 08:36:14;;;;;;;7.90;6.67;;;11.10;78.80;;;;;;5037819;28;20434;-69
2022/03/12 08:38:40;;;;;;;9.23;7.47;;;11.10;79.00;;;;;;5039189;28;20304;-69
2022/03/12 08:41:07;;;;;;;8.50;7.40;;;11.10;78.80;;;;;;5038620;28;20965;-71
2022/03/12 08:43:36;;;;;;;8.53;7.37;;;11.20;79.00;;;;;;5039945;28;20171;-70
2022/03/12 08:46:03;;;;;;;9.57;7.30;;;11.20;78.90;;;;;;5039871;28;20456;-69
2022/03/12 08:48:30;;;;;;;12.17;7.77;;;11.30;79.70;;;;;;5059911;28;20478;-70
2022/03/12 08:50:55;;;;;;;9.00;8.10;;;11.30;79.70;;;;;;5059699;28;20439;-71
2022/03/12 08:53:21;;;;;;;8.37;7.10;;;11.30;79.50;;;;;;5058948;28;20409;-69
2022/03/12 08:55:48;;;;;;;9.90;7.50;;;11.40;79.70;;;;;;5058671;28;20443;-70
2022/03/12 08:58:14;;;;;;;7.83;6.30;;;11.50;80.10;;;;;;5042437;28;20238;-70
2022/03/12 09:00:40;;;;;;;9.13;7.97;;;11.50;80.30;;;;;;5057869;28;20401;-71
2022/03/12 09:03:07;;;;;;;8.07;6.67;;;11.60;80.80;;;;;;5056371;28;20521;-70
2022/03/12 09:05:33;;;;;;;8.63;7.50;;;11.70;80.90;;;;;;5056078;28;20507;-70
2022/03/12 09:07:59;;;;;;;8.90;7.73;;;11.80;81.20;;;;;;5056140;28;20445;-70
2022/03/12 09:10:25;;;;;;;9.30;7.70;;;11.70;81.70;;;;;;5055919;28;20401;-69
2022/03/12 09:12:51;;;;;;;7.40;6.63;;;11.90;82.10;;;;;;5055250;28;20166;-69
2022/03/12 09:15:20;;;;;;;8.10;7.10;;;11.90;82.90;;;;;;5054706;28;20436;-69
2022/03/12 09:17:46;;;;;;;9.07;7.87;;;12.00;83.60;;;;;;5055784;28;20462;-70
2022/03/12 09:20:12;;;;;;;9.70;7.53;;;12.00;84.00;;;;;;5055034;28;20483;-69
2022/03/12 09:22:38;;;;;;;7.60;6.77;;;12.00;85.00;;;;;;5054755;28;20167;-70
2022/03/12 09:25:08;;;;;;;95.67;18.80;;;12.10;85.00;;;;;;5054946;28;20421;-70
2022/03/12 09:27:33;;;;;;;13.77;7.43;;;12.10;84.50;;;;;;5055536;28;20407;-70
2022/03/12 09:29:59;;;;;;;8.90;6.80;;;12.20;85.20;;;;;;5056058;28;20416;-70
2022/03/12 09:32:25;;;;;;;11.83;7.10;;;12.20;84.50;;;;;;5055401;28;20177;-70
2022/03/12 09:34:51;;;;;;;8.40;7.13;;;12.30;85.00;;;;;;5037247;28;20194;-70
2022/03/12 09:37:17;;;;;;;32.57;9.87;;;12.40;84.50;;;;;;5054505;28;20958;-70
2022/03/12 09:39:43;;;;;;;21.47;7.80;;;12.40;84.80;;;;;;5054689;28;20163;-70
2022/03/12 09:42:09;;;;;;;12.33;7.30;;;12.50;84.80;;;;;;5053762;28;20857;-69
2022/03/12 09:44:35;;;;;;;9.53;7.60;;;12.60;84.50;;;;;;5053346;28;20453;-70
2022/03/12 09:47:00;;;;;;;8.33;7.37;;;12.70;84.40;;;;;;5035526;28;20170;-70
2022/03/12 09:49:26;;;;;;;9.33;7.10;;;12.90;83.50;;;;;;5037905;28;20202;-69
2022/03/12 09:51:51;;;;;;;11.10;7.47;;;13.10;82.60;;;;;;5045656;28;20194;-67
2022/03/12 09:54:18;;;;;;;7.73;6.93;;;13.10;82.20;;;;;;5054167;28;20194;-68
2022/03/12 09:56:44;;;;;;;7.80;7.00;;;13.20;82.00;;;;;;5037494;28;20163;-68
2022/03/12 09:59:10;;;;;;;9.40;7.13;;;13.30;81.20;;;;;;5035939;28;20617;-70
2022/03/12 10:01:35;;;;;;;8.30;7.40;;;13.40;80.80;;;;;;5035946;28;20421;-66
2022/03/12 10:04:01;;;;;;;7.43;6.73;;;13.50;80.70;;;;;;5036370;28;20184;-69
2022/03/12 10:06:30;;;;;;;8.87;7.33;;;13.60;80.30;;;;;;5035126;28;20278;-69
2022/03/12 10:08:56;;;;;;;7.90;7.10;;;13.70;80.00;;;;;;5035912;28;20206;-71
2022/03/12 10:11:22;;;;;;;7.90;7.10;;;13.70;79.90;;;;;;5035041;28;20409;-69
2022/03/12 10:13:48;;;;;;;15.83;7.60;;;13.70;80.70;;;;;;5037502;28;20421;-70
2022/03/12 10:16:14;;;;;;;8.30;7.33;;;13.50;82.30;;;;;;5035446;28;20203;-68
2022/03/12 10:18:41;;;;;;;7.60;6.90;;;13.50;82.90;;;;;;5036169;28;20167;-70
2022/03/12 10:21:07;;;;;;;7.73;6.77;;;13.50;82.90;;;;;;5035762;28;20988;-68
2022/03/12 10:23:34;;;;;;;9.73;7.40;;;13.60;82.70;;;;;;5036052;28;20425;-69
2022/03/12 10:26:00;;;;;;;9.23;7.40;;;13.80;82.50;;;;;;5036641;28;20448;-69
2022/03/12 10:28:29;;;;;;;9.00;7.30;;;13.90;81.70;;;;;;5036299;28;20465;-69
2022/03/12 10:30:54;;;;;;;12.33;8.00;;;14.00;81.40;;;;;;5036258;28;20401;-70
2022/03/12 10:33:25;;;;;;;9.07;7.30;;;14.10;81.00;;;;;;5036689;28;20428;-69
2022/03/12 10:35:51;;;;;;;9.20;7.30;;;14.20;80.50;;;;;;5004213;28;20190;-70
2022/03/12 10:38:18;;;;;;;8.00;7.20;;;14.20;80.10;;;;;;5036227;28;20475;-68
2022/03/12 10:40:46;;;;;;;9.23;7.60;;;14.20;80.10;;;;;;5017600;28;20440;-69
2022/03/12 10:43:15;;;;;;;7.33;6.57;;;14.30;80.30;;;;;;5031508;28;20760;-67
2022/03/12 10:45:46;;;;;;;6.30;5.77;;;14.30;81.40;;;;;;5049292;28;20918;-66
2022/03/12 10:48:13;;;;;;;11.03;6.83;;;14.40;82.60;;;;;;5052216;28;20444;-66
2022/03/12 10:50:44;;;;;;;7.27;6.30;;;14.50;82.50;;;;;;5034625;28;20925;-66
2022/03/12 10:53:12;;;;;;;9.27;6.70;;;14.60;81.80;;;;;;5052705;28;20407;-68
2022/03/12 10:55:41;;;;;;;7.63;6.67;;;14.70;81.50;;;;;;5053328;28;20954;-68
2022/03/12 10:58:12;;;;;;;7.63;6.93;;;14.80;81.20;;;;;;5052745;28;20404;-71
2022/03/12 11:00:45;;;;;;;6.83;6.13;;;14.80;81.30;;;;;;5052261;28;20508;-70
2022/03/12 11:03:14;;;;;;;7.90;7.10;;;14.70;81.40;;;;;;5052132;28;20754;-70
2022/03/12 11:05:43;;;;;;;7.53;6.83;;;14.80;81.10;;;;;;5052388;28;20420;-68
2022/03/12 11:08:18;;;;;;;9.83;7.10;;;14.80;81.50;;;;;;5052058;28;20505;-69
2022/03/12 11:10:46;;;;;;;7.67;6.50;;;14.70;81.50;;;;;;5052518;28;20491;-69
2022/03/12 11:13:39;;;;;;;9.87;8.40;;;14.80;81.90;;;;;;5051604;28;20420;-68
2022/03/12 11:16:15;;;;;;;7.43;6.73;;;14.80;81.40;;;;;;5051479;28;20417;-65
2022/03/12 11:18:53;;;;;;;8.37;7.57;;;14.90;81.40;;;;;;5051960;28;20411;-65
2022/03/12 11:21:26;;;;;;;8.00;7.20;;;15.10;81.30;;;;;;5051636;28;20780;-65
2022/03/12 11:23:53;;;;;;;8.03;7.13;;;15.20;80.50;;;;;;5051431;28;20825;-67
2022/03/12 11:26:18;;;;;;;18.60;7.30;;;15.10;80.10;;;;;;5051590;28;20773;-65
2022/03/12 11:28:55;;;;;;;7.00;6.30;;;15.20;80.50;;;;;;5051084;28;20444;-66
2022/03/12 11:31:48;;;;;;;8.83;6.90;;;15.30;80.70;;;;;;5054592;28;20177;-66
2022/03/12 11:34:20;;;;;;;7.93;7.10;;;15.30;80.50;;;;;;5051637;28;20494;-66
2022/03/12 11:36:57;;;;;;;8.13;7.17;;;15.40;79.80;;;;;;5051792;28;20441;-68
2022/03/12 11:39:32;;;;;;;8.60;6.53;;;15.50;79.40;;;;;;5052442;28;20431;-71
2022/03/12 11:42:08;;;;;;;8.57;7.67;;;15.60;79.60;;;;;;5051564;28;20415;-67
2022/03/12 11:44:35;;;;;;;8.53;7.73;;;15.70;79.70;;;;;;5032348;28;20833;-66
2022/03/12 11:47:01;;;;;;;8.17;7.37;;;15.80;78.60;;;;;;5036458;28;20408;-69
2022/03/12 11:49:27;;;;;;;8.33;7.30;;;15.60;78.00;;;;;;5036206;28;20604;-67
2022/03/12 11:51:52;;;;;;;7.63;6.90;;;15.70;78.60;;;;;;5035697;28;20441;-71
2022/03/12 11:54:19;;;;;;;9.13;7.67;;;15.80;78.30;;;;;;5039720;28;20167;-71
2022/03/12 11:56:44;;;;;;;7.67;6.27;;;15.80;77.00;;;;;;5036622;28;20171;-71
2022/03/12 11:59:10;;;;;;;8.53;7.63;;;15.80;77.60;;;;;;5038079;28;20475;-73
2022/03/12 12:01:37;;;;;;;10.33;8.13;;;15.80;77.90;;;;;;5020448;28;20181;-72
2022/03/12 12:04:03;;;;;;;8.50;7.60;;;15.90;77.50;;;;;;5039211;28;20182;-70
2022/03/12 12:06:29;;;;;;;8.40;7.60;;;15.90;77.40;;;;;;5044108;28;20450;-72
2022/03/12 12:08:55;;;;;;;8.97;6.50;;;15.90;77.40;;;;;;5015748;28;20481;-68
2022/03/12 12:11:21;;;;;;;8.57;6.83;;;15.90;77.30;;;;;;5016379;28;20313;-72
2022/03/12 12:13:46;;;;;;;7.10;6.40;;;16.00;77.00;;;;;;5049778;28;20455;-69
2022/03/12 12:16:12;;;;;;;7.47;6.77;;;15.90;77.00;;;;;;5056318;28;20202;-71
2022/03/12 12:18:38;;;;;;;7.00;6.30;;;15.90;77.30;;;;;;5058737;28;20205;-70
2022/03/12 12:21:04;;;;;;;6.87;6.23;;;15.80;77.50;;;;;;5055219;28;20214;-72
2022/03/12 12:23:29;;;;;;;8.27;6.43;;;15.80;77.80;;;;;;5055857;28;20205;-73
2022/03/12 12:26:07;;;;;;;7.27;6.30;;;15.70;77.70;;;;;;5055113;28;20839;-70
2022/03/12 12:28:44;;;;;;;8.00;7.20;;;15.70;77.60;;;;;;5057595;28;20285;-67
2022/03/12 12:31:22;;;;;;;8.10;7.30;;;15.70;76.90;;;;;;5039835;28;20436;-69
2022/03/12 12:33:48;;;;;;;10.73;8.60;;;15.70;76.30;;;;;;5039351;28;20439;-70
2022/03/12 12:36:18;;;;;;;9.00;7.67;;;15.70;76.10;;;;;;5039327;28;20434;-68
2022/03/12 12:39:10;;;;;;;8.50;7.57;;;15.70;76.20;;;;;;5039897;28;20160;-66
2022/03/12 12:42:02;;;;;;;9.57;7.40;;;15.60;76.00;;;;;;5019577;28;20488;-69
2022/03/12 12:44:39;;;;;;;9.63;8.60;;;15.70;76.10;;;;;;5017766;28;20788;-70
2022/03/12 12:47:06;;;;;;;9.17;8.27;;;15.80;76.00;;;;;;5054679;28;20773;-70
2022/03/12 12:49:40;;;;;;;8.97;7.90;;;15.80;76.00;;;;;;5053816;28;20543;-71